createdAt,value
2023-05-14T00:00:59.459Z,100130.44
2023-05-14T00:03:27.102Z,100131.47
2023-05-14T00:05:54.498Z,100130.94
2023-05-14T00:08:21.828Z,100137.47
2023-05-14T00:10:49.149Z,100130.25
2023-05-14T00:13:16.538Z,100130.25
2023-05-14T00:15:45.274Z,100126.56
2023-05-14T00:18:12.594Z,100126.41
2023-05-14T00:20:41.011Z,100119.03
2023-05-14T00:23:08.349Z,100118.03
2023-05-14T00:25:36.122Z,100120.84
2023-05-14T00:28:03.883Z,100116.66
2023-05-14T00:30:31.191Z,100120.00
2023-05-14T00:33:00.051Z,100120.34
2023-05-14T00:35:27.613Z,100118.00
2023-05-14T00:37:55.000Z,100114.81
2023-05-14T00:40:25.642Z,100108.94
2023-05-14T00:42:53.345Z,100105.91
2023-05-14T00:45:20.924Z,100108.09
2023-05-14T00:47:48.604Z,100100.38
2023-05-14T00:50:18.309Z,100101.25
2023-05-14T00:52:46.021Z,100097.91
2023-05-14T00:55:15.318Z,100105.44
2023-05-14T00:57:43.000Z,100095.38
2023-05-14T01:00:11.038Z,100095.72
2023-05-14T01:02:38.523Z,100091.19
2023-05-14T01:05:08.037Z,100097.22
2023-05-14T01:07:49.136Z,100096.72
2023-05-14T01:10:25.139Z,100096.56
2023-05-14T01:13:02.192Z,100105.59
2023-05-14T01:15:33.415Z,100094.34
2023-05-14T01:18:04.756Z,100091.81
2023-05-14T01:20:32.132Z,100087.31
2023-05-14T01:23:01.460Z,100096.56
2023-05-14T01:25:29.835Z,100086.16
2023-05-14T01:28:04.436Z,100090.81
2023-05-14T01:30:35.764Z,100080.06
2023-05-14T01:33:06.264Z,100082.13
2023-05-14T01:35:33.932Z,100081.63
2023-05-14T01:38:06.826Z,100083.47
2023-05-14T01:40:36.046Z,100079.13
2023-05-14T01:43:04.170Z,100084.13
2023-05-14T01:45:35.185Z,100088.66
2023-05-14T01:48:02.981Z,100080.41
2023-05-14T01:50:30.352Z,100076.22
2023-05-14T01:52:57.910Z,100070.81
2023-05-14T01:55:26.753Z,100063.47
2023-05-14T01:57:54.782Z,100065.28
2023-05-14T02:00:24.527Z,100058.06
2023-05-14T02:02:52.280Z,100064.91
2023-05-14T02:05:19.928Z,100070.59
2023-05-14T02:07:47.240Z,100072.56
2023-05-14T02:10:14.587Z,100064.22
2023-05-14T02:12:43.286Z,100067.25
2023-05-14T02:15:11.100Z,100061.03
2023-05-14T02:17:38.495Z,100068.44
2023-05-14T02:20:07.423Z,100066.28
2023-05-14T02:22:34.753Z,100067.28
2023-05-14T02:25:02.232Z,100071.69
2023-05-14T02:27:29.659Z,100070.31
2023-05-14T02:29:58.474Z,100061.94
2023-05-14T02:32:25.828Z,100066.59
2023-05-14T02:34:53.212Z,100062.88
2023-05-14T02:37:20.514Z,100071.22
2023-05-14T02:39:47.787Z,100074.91
2023-05-14T02:42:15.106Z,100064.28
2023-05-14T02:44:42.418Z,100062.59
2023-05-14T02:47:11.197Z,100067.34
2023-05-14T02:49:38.789Z,100068.38
2023-05-14T02:52:06.548Z,100068.97
2023-05-14T02:54:33.906Z,100064.09
2023-05-14T02:57:01.253Z,100060.63
2023-05-14T02:59:28.597Z,100060.06
2023-05-14T03:01:56.486Z,100062.63
2023-05-14T03:04:25.543Z,100057.16
2023-05-14T03:06:52.827Z,100061.78
2023-05-14T03:09:20.169Z,100047.25
2023-05-14T03:11:47.563Z,100056.44
2023-05-14T03:14:14.976Z,100060.31
2023-05-14T03:16:42.538Z,100047.63
2023-05-14T03:19:10.193Z,100045.09
2023-05-14T03:21:39.340Z,100043.94
2023-05-14T03:24:06.947Z,100038.94
2023-05-14T03:26:34.252Z,100033.38
2023-05-14T03:29:02.816Z,100033.69
2023-05-14T03:31:30.183Z,100033.56
2023-05-14T03:33:57.672Z,100036.28
2023-05-14T03:36:25.049Z,100024.16
2023-05-14T03:38:53.715Z,100017.66
2023-05-14T03:41:21.069Z,100019.31
2023-05-14T03:43:48.395Z,100020.16
2023-05-14T03:46:15.899Z,100024.91
2023-05-14T03:48:43.326Z,100015.56
2023-05-14T03:51:10.656Z,100013.41
2023-05-14T03:53:38.051Z,100004.03
2023-05-14T03:56:06.951Z,100003.16
2023-05-14T03:58:34.254Z,100002.19
2023-05-14T04:01:01.589Z,100003.66
2023-05-14T04:03:29.238Z,100005.25
2023-05-14T04:05:56.643Z,100004.81
2023-05-14T04:08:24.068Z,99995.09
2023-05-14T04:10:51.427Z,99988.63
2023-05-14T04:13:20.331Z,99995.28
2023-05-14T04:15:47.694Z,99997.38
2023-05-14T04:18:15.016Z,99987.13
2023-05-14T04:20:42.501Z,99991.03
2023-05-14T04:23:09.825Z,99989.84
2023-05-14T04:25:37.448Z,99989.16
2023-05-14T04:28:05.288Z,99990.34
2023-05-14T04:30:33.977Z,99992.88
2023-05-14T04:33:01.466Z,99987.84
2023-05-14T04:35:28.899Z,99991.53
2023-05-14T04:37:56.376Z,99990.72
2023-05-14T04:40:24.250Z,99991.22
2023-05-14T04:42:51.872Z,99992.56
2023-05-14T04:45:19.330Z,99997.59
2023-05-14T04:47:48.085Z,99988.72
2023-05-14T04:50:15.661Z,99991.59
2023-05-14T04:52:43.042Z,99993.91
2023-05-14T04:55:10.431Z,99997.28
2023-05-14T04:57:37.843Z,99997.94
2023-05-14T05:00:06.214Z,99997.09
2023-05-14T05:02:33.520Z,100000.25
2023-05-14T05:05:03.045Z,100003.25
2023-05-14T05:07:30.335Z,100006.97
2023-05-14T05:09:57.826Z,100001.28
2023-05-14T05:12:25.160Z,99997.59
2023-05-14T05:14:52.508Z,100005.94
2023-05-14T05:17:19.841Z,99999.94
2023-05-14T05:19:47.195Z,100000.56
2023-05-14T05:22:16.236Z,100008.97
2023-05-14T05:24:43.612Z,100011.16
2023-05-14T05:27:10.939Z,100009.69
2023-05-14T05:29:38.432Z,100004.97
2023-05-14T05:32:06.985Z,100008.47
2023-05-14T05:34:34.706Z,100001.94
2023-05-14T05:37:02.194Z,100014.00
2023-05-14T05:39:30.879Z,100006.25
2023-05-14T05:41:58.178Z,100006.28
2023-05-14T05:44:25.558Z,100001.47
2023-05-14T05:46:52.878Z,100004.47
2023-05-14T05:49:20.239Z,100010.97
2023-05-14T05:51:47.566Z,100008.66
2023-05-14T05:54:14.946Z,100011.94
2023-05-14T05:56:43.843Z,100021.66
2023-05-14T05:59:11.130Z,100037.94
2023-05-14T06:01:38.690Z,100036.88
2023-05-14T06:04:06.012Z,100047.38
2023-05-14T06:06:33.353Z,100046.13
2023-05-14T06:09:00.673Z,100047.19
2023-05-14T06:11:28.183Z,100051.22
2023-05-14T06:13:56.956Z,100049.06
2023-05-14T06:16:24.432Z,100047.03
2023-05-14T06:18:51.873Z,100050.22
2023-05-14T06:21:19.213Z,100055.25
2023-05-14T06:23:46.541Z,100069.75
2023-05-14T06:26:13.885Z,100072.59
2023-05-14T06:28:41.186Z,100077.59
2023-05-14T06:31:09.874Z,100076.59
2023-05-14T06:33:37.248Z,100072.66
2023-05-14T06:36:06.232Z,100056.44
2023-05-14T06:38:33.681Z,100050.91
2023-05-14T06:41:01.080Z,100064.72
2023-05-14T06:43:28.368Z,100071.38
2023-05-14T06:45:55.763Z,100069.53
2023-05-14T06:48:24.585Z,100074.06
2023-05-14T06:50:52.033Z,100080.81
2023-05-14T06:53:19.372Z,100075.75
2023-05-14T06:55:47.855Z,100075.09
2023-05-14T06:58:15.288Z,100073.06
2023-05-14T07:00:42.814Z,100081.63
2023-05-14T07:03:10.218Z,100078.44
2023-05-14T07:05:38.933Z,100093.16
2023-05-14T07:08:06.253Z,100091.34
2023-05-14T07:10:33.771Z,100088.50
2023-05-14T07:13:01.080Z,100087.34
2023-05-14T07:15:28.356Z,100086.13
2023-05-14T07:17:55.712Z,100085.09
2023-05-14T07:20:23.477Z,100091.44
2023-05-14T07:22:53.120Z,100089.69
2023-05-14T07:25:20.459Z,100090.50
2023-05-14T07:27:47.762Z,100091.44
2023-05-14T07:30:15.246Z,100088.69
2023-05-14T07:32:43.037Z,100098.84
2023-05-14T07:35:10.890Z,100101.88
2023-05-14T07:37:38.583Z,100100.25
2023-05-14T07:40:08.653Z,100099.75
2023-05-14T07:42:37.487Z,100105.06
2023-05-14T07:45:05.725Z,100098.00
2023-05-14T07:47:33.467Z,100103.28
2023-05-14T07:50:00.976Z,100109.97
2023-05-14T07:52:28.391Z,100107.94
2023-05-14T07:54:55.661Z,100112.28
2023-05-14T07:57:24.301Z,100118.38
2023-05-14T07:59:51.619Z,100102.94
2023-05-14T08:02:18.991Z,100119.22
2023-05-14T08:04:46.326Z,100125.97
2023-05-14T08:07:13.623Z,100121.63
2023-05-14T08:09:40.889Z,100116.69
2023-05-14T08:12:08.652Z,100113.97
2023-05-14T08:14:37.364Z,100114.09
2023-05-14T08:17:05.133Z,100115.97
2023-05-14T08:19:32.797Z,100122.66
2023-05-14T08:22:00.071Z,100128.06
2023-05-14T08:24:27.345Z,100131.25
2023-05-14T08:26:55.079Z,100126.22
2023-05-14T08:29:22.390Z,100128.72
2023-05-14T08:31:51.094Z,100130.75
2023-05-14T08:34:18.415Z,100127.44
2023-05-14T08:36:45.845Z,100125.94
2023-05-14T08:39:13.098Z,100128.09
2023-05-14T08:41:41.267Z,100136.47
2023-05-14T08:44:13.437Z,100138.97
2023-05-14T08:46:41.296Z,100143.81
2023-05-14T08:49:15.765Z,100140.13
2023-05-14T08:51:44.161Z,100141.06
2023-05-14T08:54:14.007Z,100136.38
2023-05-14T08:56:43.709Z,100147.75
2023-05-14T08:59:11.201Z,100141.91
2023-05-14T09:01:39.224Z,100138.56
2023-05-14T09:04:06.830Z,100139.59
2023-05-14T09:06:36.612Z,100143.69
2023-05-14T09:09:04.331Z,100142.63
2023-05-14T09:11:31.661Z,100147.19
2023-05-14T09:13:58.956Z,100145.50
2023-05-14T09:16:27.236Z,100146.66
2023-05-14T09:18:54.796Z,100140.97
2023-05-14T09:21:22.543Z,100139.78
2023-05-14T09:23:53.849Z,100136.16
2023-05-14T09:26:23.745Z,100140.88
2023-05-14T09:28:54.000Z,100138.03
2023-05-14T09:31:21.673Z,100138.75
2023-05-14T09:33:50.813Z,100133.19
2023-05-14T09:36:18.290Z,100131.72
2023-05-14T09:38:45.750Z,100142.00
2023-05-14T09:41:14.479Z,100141.53
2023-05-14T09:43:41.770Z,100144.59
2023-05-14T09:46:09.258Z,100137.72
2023-05-14T09:48:36.594Z,100140.63
2023-05-14T09:51:04.782Z,100139.34
2023-05-14T09:53:33.279Z,100143.03
2023-05-14T09:56:00.628Z,100139.72
2023-05-14T09:58:29.581Z,100136.56
2023-05-14T10:00:58.374Z,100141.63
2023-05-14T10:03:26.573Z,100146.44
2023-05-14T10:05:56.411Z,100142.13
2023-05-14T10:08:26.945Z,100140.66
2023-05-14T10:10:55.137Z,100137.31
2023-05-14T10:13:26.720Z,100141.25
2023-05-14T10:15:59.879Z,100136.91
2023-05-14T10:18:31.559Z,100144.66
2023-05-14T10:21:04.692Z,100146.34
2023-05-14T10:23:32.905Z,100146.91
2023-05-14T10:26:01.398Z,100144.16
2023-05-14T10:28:28.825Z,100144.28
2023-05-14T10:31:01.118Z,100150.00
2023-05-14T10:33:28.479Z,100140.66
2023-05-14T10:35:57.843Z,100137.81
2023-05-14T10:38:27.550Z,100145.72
2023-05-14T10:40:56.840Z,100140.63
2023-05-14T10:43:26.497Z,100137.22
2023-05-14T10:45:53.959Z,100133.88
2023-05-14T10:48:22.919Z,100132.00
2023-05-14T10:50:50.951Z,100139.47
2023-05-14T10:53:18.694Z,100143.94
2023-05-14T10:55:46.174Z,100139.47
2023-05-14T10:58:14.803Z,100130.91
2023-05-14T11:00:42.137Z,100126.56
2023-05-14T11:03:10.501Z,100130.19
2023-05-14T11:05:41.071Z,100133.66
2023-05-14T11:08:08.986Z,100132.25
2023-05-14T11:10:36.261Z,100129.78
2023-05-14T11:13:03.650Z,100130.31
2023-05-14T11:15:31.308Z,100127.34
2023-05-14T11:17:58.679Z,100130.06
2023-05-14T11:20:26.485Z,100129.78
2023-05-14T11:22:55.331Z,100119.47
2023-05-14T11:25:22.812Z,100118.47
2023-05-14T11:27:50.421Z,100098.84
2023-05-14T11:30:19.596Z,100096.53
2023-05-14T11:32:48.147Z,100089.88
2023-05-14T11:35:16.259Z,100075.44
2023-05-14T11:37:43.835Z,100074.69
2023-05-14T11:40:16.322Z,100071.53
2023-05-14T11:42:43.754Z,100070.41
2023-05-14T11:45:11.989Z,100071.38
2023-05-14T11:47:40.886Z,100074.09
2023-05-14T11:50:09.822Z,100069.91
2023-05-14T11:52:39.260Z,100070.22
2023-05-14T11:55:10.881Z,100072.63
2023-05-14T11:57:40.271Z,100062.00
2023-05-14T12:00:09.550Z,100060.53
2023-05-14T12:02:37.884Z,100053.59
2023-05-14T12:05:06.612Z,100058.66
2023-05-14T12:07:33.967Z,100058.44
2023-05-14T12:10:03.244Z,100056.78
2023-05-14T12:12:35.164Z,100056.16
2023-05-14T12:15:12.001Z,100056.78
2023-05-14T12:17:39.429Z,100054.16
2023-05-14T12:20:09.630Z,100044.56
2023-05-14T12:22:37.283Z,100032.88
2023-05-14T12:25:10.271Z,100034.59
2023-05-14T12:27:37.908Z,100026.69
2023-05-14T12:32:38.849Z,100031.91
2023-05-14T12:35:06.495Z,100029.81
2023-05-14T12:37:33.819Z,100026.69
2023-05-14T12:40:01.168Z,100022.66
2023-05-14T12:42:28.596Z,100024.31
2023-05-14T12:44:56.029Z,100028.63
2023-05-14T12:47:24.755Z,100013.31
2023-05-14T12:49:52.162Z,100015.66
2023-05-14T12:52:35.961Z,100019.25
2023-05-14T12:55:06.348Z,100011.28
2023-05-14T12:57:33.719Z,100010.16
2023-05-14T13:00:01.706Z,100000.97
2023-05-14T13:02:30.529Z,99998.03
2023-05-14T13:04:57.800Z,99999.72
2023-05-14T13:07:25.101Z,99990.22
2023-05-14T13:09:52.411Z,99987.28
2023-05-14T13:12:19.678Z,99996.47
2023-05-14T13:14:46.998Z,99996.66
2023-05-14T13:17:14.385Z,99995.25
2023-05-14T13:19:43.108Z,100003.66
2023-05-14T13:22:10.536Z,100012.66
2023-05-14T13:24:37.987Z,100021.25
2023-05-14T13:27:05.672Z,100050.16
2023-05-14T13:29:33.107Z,100052.38
2023-05-14T13:32:00.650Z,100065.44
2023-05-14T13:34:27.921Z,100070.28
2023-05-14T13:36:56.565Z,100072.56
2023-05-14T13:39:23.884Z,100077.56
2023-05-14T13:41:51.178Z,100087.22
2023-05-14T13:44:18.632Z,100092.06
2023-05-14T13:46:46.007Z,100085.72
2023-05-14T13:49:13.317Z,100094.94
2023-05-14T13:51:40.652Z,100096.34
2023-05-14T13:54:09.295Z,100094.41
2023-05-14T13:56:36.697Z,100104.56
2023-05-14T13:59:04.177Z,100105.78
2023-05-14T14:01:31.786Z,100109.50
2023-05-14T14:03:59.311Z,100111.56
2023-05-14T14:06:26.927Z,100105.50
2023-05-14T14:08:54.271Z,100100.84
2023-05-14T14:11:23.156Z,100091.38
2023-05-14T14:13:50.526Z,100089.72
2023-05-14T14:16:18.059Z,100084.06
2023-05-14T14:18:45.490Z,100082.22
2023-05-14T14:21:12.855Z,100084.44
2023-05-14T14:23:40.111Z,100086.94
2023-05-14T14:26:07.368Z,100077.66
2023-05-14T14:28:36.027Z,100092.50
2023-05-14T14:31:03.559Z,100086.00
2023-05-14T14:33:30.930Z,100087.41
2023-05-14T14:35:58.230Z,100082.38
2023-05-14T14:38:25.617Z,100078.59
2023-05-14T14:40:53.097Z,100083.22
2023-05-14T14:43:20.533Z,100092.91
2023-05-14T14:45:49.530Z,100092.50
2023-05-14T14:48:27.058Z,100093.09
2023-05-14T14:50:55.126Z,100097.94
2023-05-14T14:53:23.152Z,100108.53
2023-05-14T14:55:51.352Z,100101.75
2023-05-14T14:58:19.990Z,100100.34
2023-05-14T15:00:50.061Z,100098.56
2023-05-14T15:03:18.114Z,100108.47
2023-05-14T15:05:45.651Z,100113.00
2023-05-14T15:08:12.933Z,100121.78
2023-05-14T15:10:40.242Z,100128.03
2023-05-14T15:13:08.595Z,100125.28
2023-05-14T15:15:36.258Z,100135.00
2023-05-14T15:18:05.382Z,100125.09
2023-05-14T15:20:32.886Z,100134.88
2023-05-14T15:23:00.215Z,100130.22
2023-05-14T15:25:27.507Z,100134.94
2023-05-14T15:27:54.928Z,100140.53
2023-05-14T15:30:24.467Z,100146.50
2023-05-14T15:32:52.017Z,100147.69
2023-05-14T15:35:20.744Z,100148.31
2023-05-14T15:37:48.309Z,100143.91
2023-05-14T15:40:15.588Z,100139.91
2023-05-14T15:42:43.910Z,100148.66
2023-05-14T15:45:13.297Z,100137.34
2023-05-14T15:47:41.141Z,100149.44
2023-05-14T15:50:09.128Z,100148.78
2023-05-14T15:52:37.832Z,100145.75
2023-05-14T15:55:06.594Z,100146.09
2023-05-14T15:57:34.232Z,100155.69
2023-05-14T16:00:01.746Z,100160.06
2023-05-14T16:02:29.044Z,100143.78
2023-05-14T16:04:56.372Z,100124.63
2023-05-14T16:07:23.888Z,100139.75
2023-05-14T16:09:52.699Z,100140.47
2023-05-14T16:12:20.061Z,100145.50
2023-05-14T16:14:47.368Z,100143.31
2023-05-14T16:17:14.718Z,100143.00
2023-05-14T16:19:42.124Z,100149.22
2023-05-14T16:22:09.458Z,100143.16
2023-05-14T16:24:36.795Z,100140.06
2023-05-14T16:29:33.440Z,100147.69
2023-05-14T16:32:01.008Z,100148.81
2023-05-14T16:34:28.375Z,100143.78
2023-05-14T16:36:55.694Z,100155.34
2023-05-14T16:39:22.964Z,100147.16
2023-05-14T16:41:50.295Z,100141.63
2023-05-14T16:44:18.961Z,100141.41
2023-05-14T16:46:46.353Z,100130.28
2023-05-14T16:49:14.990Z,100135.59
2023-05-14T16:51:42.469Z,100135.31
2023-05-14T16:54:09.877Z,100133.31
2023-05-14T16:56:37.214Z,100125.56
2023-05-14T16:59:04.542Z,100125.38
2023-05-14T17:01:33.848Z,100124.69
2023-05-14T17:04:01.225Z,100131.66
2023-05-14T17:06:28.538Z,100115.72
2023-05-14T17:08:55.805Z,100123.56
2023-05-14T17:11:23.103Z,100115.69
2023-05-14T17:13:50.597Z,100116.16
2023-05-14T17:16:18.180Z,100119.16
2023-05-14T17:18:47.186Z,100120.31
2023-05-14T17:21:17.129Z,100110.84
2023-05-14T17:23:44.428Z,100113.00
2023-05-14T17:26:11.788Z,100118.75
2023-05-14T17:28:39.292Z,100105.38
2023-05-14T17:31:06.661Z,100110.09
2023-05-14T17:33:34.264Z,100109.53
2023-05-14T17:36:03.261Z,100107.88
2023-05-14T17:38:30.589Z,100120.63
2023-05-14T17:40:57.970Z,100120.19
2023-05-14T17:43:25.261Z,100116.25
2023-05-14T17:45:54.318Z,100122.28
2023-05-14T17:48:22.515Z,100125.63
2023-05-14T17:50:49.841Z,100127.44
2023-05-14T17:53:18.688Z,100135.81
2023-05-14T17:55:46.038Z,100143.44
2023-05-14T17:58:14.092Z,100135.66
2023-05-14T18:00:42.035Z,100141.63
2023-05-14T18:03:09.512Z,100133.31
2023-05-14T18:05:36.989Z,100135.47
2023-05-14T18:08:04.900Z,100143.44
2023-05-14T18:10:33.571Z,100147.22
2023-05-14T18:13:01.060Z,100142.88
2023-05-14T18:15:29.008Z,100147.66
2023-05-14T18:17:56.416Z,100157.59
2023-05-14T18:20:23.779Z,100162.53
2023-05-14T18:22:51.382Z,100162.72
2023-05-14T18:25:19.043Z,100162.69
2023-05-14T18:27:47.858Z,100180.03
2023-05-14T18:30:16.029Z,100177.94
2023-05-14T18:32:44.482Z,100182.38
2023-05-14T18:35:12.974Z,100186.22
2023-05-14T18:37:40.595Z,100183.56
2023-05-14T18:40:08.997Z,100178.34
2023-05-14T18:42:36.369Z,100191.88
2023-05-14T18:45:05.960Z,100194.97
2023-05-14T18:47:33.708Z,100201.38
2023-05-14T18:50:01.053Z,100209.09
2023-05-14T18:52:28.713Z,100210.63
2023-05-14T18:54:55.986Z,100210.28
2023-05-14T18:57:23.350Z,100211.97
2023-05-14T18:59:50.736Z,100214.00
2023-05-14T19:02:19.673Z,100217.34
2023-05-14T19:07:17.577Z,100217.69
2023-05-14T19:09:44.941Z,100223.06
2023-05-14T19:12:14.649Z,100232.66
2023-05-14T19:14:41.968Z,100227.06
2023-05-14T19:17:09.454Z,100229.09
2023-05-14T19:19:38.202Z,100232.97
2023-05-14T19:22:08.374Z,100234.50
2023-05-14T19:24:35.662Z,100245.59
2023-05-14T19:27:03.075Z,100243.25
2023-05-14T19:29:30.532Z,100234.50
2023-05-14T19:31:57.877Z,100238.03
2023-05-14T19:34:25.273Z,100234.63
2023-05-14T19:36:54.140Z,100251.13
2023-05-14T19:39:21.715Z,100249.13
2023-05-14T19:41:49.017Z,100255.66
2023-05-14T19:44:16.381Z,100253.63
2023-05-14T19:46:43.829Z,100257.19
2023-05-14T19:49:11.396Z,100274.47
2023-05-14T19:51:38.922Z,100273.09
2023-05-14T19:54:07.708Z,100253.94
2023-05-14T19:56:35.576Z,100265.72
2023-05-14T19:59:02.909Z,100269.25
2023-05-14T20:01:30.266Z,100272.63
2023-05-14T20:03:57.624Z,100280.69
2023-05-14T20:06:25.090Z,100277.66
2023-05-14T20:08:52.589Z,100282.81
2023-05-14T20:11:21.352Z,100283.50
2023-05-14T20:13:48.627Z,100297.59
2023-05-14T20:16:16.026Z,100296.59
2023-05-14T20:18:43.469Z,100292.53
2023-05-14T20:21:11.112Z,100301.94
2023-05-14T20:23:38.530Z,100307.69
2023-05-14T20:26:05.851Z,100308.19
2023-05-14T20:28:34.526Z,100318.44
2023-05-14T20:31:01.856Z,100321.47
2023-05-14T20:33:29.389Z,100322.97
2023-05-14T20:35:56.961Z,100329.19
2023-05-14T20:38:24.372Z,100326.16
2023-05-14T20:40:51.676Z,100322.78
2023-05-14T20:43:19.113Z,100325.31
2023-05-14T20:45:47.847Z,100311.06
2023-05-14T20:48:15.398Z,100303.38
2023-05-14T20:50:42.724Z,100314.63
2023-05-14T20:53:10.206Z,100309.09
2023-05-14T20:55:37.631Z,100308.22
2023-05-14T20:58:04.938Z,100302.16
2023-05-14T21:00:32.403Z,100306.72
2023-05-14T21:03:01.288Z,100302.19
2023-05-14T21:05:28.871Z,100309.06
2023-05-14T21:07:56.203Z,100308.84
2023-05-14T21:10:24.046Z,100316.91
2023-05-14T21:12:51.578Z,100321.28
2023-05-14T21:15:19.056Z,100321.44
2023-05-14T21:17:46.384Z,100322.81
2023-05-14T21:20:15.284Z,100311.06
2023-05-14T21:22:42.769Z,100308.03
2023-05-14T21:25:10.388Z,100302.63
2023-05-14T21:27:37.713Z,100302.50
2023-05-14T21:30:06.565Z,100316.41
2023-05-14T21:32:34.094Z,100323.13
2023-05-14T21:35:01.390Z,100326.44
2023-05-14T21:37:30.255Z,100332.84
2023-05-14T21:39:57.541Z,100320.75
2023-05-14T21:42:25.057Z,100323.13
2023-05-14T21:44:52.468Z,100324.81
2023-05-14T21:47:19.910Z,100329.84
2023-05-14T21:49:47.196Z,100328.19
2023-05-14T21:52:14.600Z,100321.47
2023-05-14T21:54:43.338Z,100327.00
2023-05-14T21:57:10.630Z,100327.28
2023-05-14T21:59:37.965Z,100318.81
2023-05-14T22:02:07.389Z,100311.50
2023-05-14T22:04:35.490Z,100316.41
2023-05-14T22:07:03.023Z,100305.66
2023-05-14T22:09:30.507Z,100313.06
2023-05-14T22:11:59.324Z,100315.56
2023-05-14T22:14:26.700Z,100314.72
2023-05-14T22:16:54.245Z,100315.38
2023-05-14T22:19:21.777Z,100314.22
2023-05-14T22:21:49.216Z,100310.19
2023-05-14T22:24:16.501Z,100310.03
2023-05-14T22:26:43.979Z,100310.06
2023-05-14T22:29:12.696Z,100301.31
2023-05-14T22:31:40.066Z,100315.94
2023-05-14T22:34:07.449Z,100305.72
2023-05-14T22:36:35.043Z,100305.53
2023-05-14T22:39:02.470Z,100306.03
2023-05-14T22:41:29.804Z,100303.19
2023-05-14T22:43:57.098Z,100299.97
2023-05-14T22:46:25.961Z,100298.63
2023-05-14T22:48:53.269Z,100288.22
2023-05-14T22:51:20.679Z,100297.47
2023-05-14T22:53:47.948Z,100299.31
2023-05-14T22:56:15.511Z,100296.63
2023-05-14T22:58:42.913Z,100287.03
2023-05-14T23:01:10.206Z,100287.59
2023-05-14T23:03:38.891Z,100290.41
2023-05-14T23:06:06.673Z,100276.81
2023-05-14T23:08:33.972Z,100284.22
2023-05-14T23:11:01.263Z,100285.72
2023-05-14T23:13:28.722Z,100279.84
2023-05-14T23:15:56.505Z,100283.53
2023-05-14T23:18:24.177Z,100274.63
2023-05-14T23:20:53.009Z,100277.16
2023-05-14T23:23:20.335Z,100270.78
2023-05-14T23:25:47.742Z,100262.34
2023-05-14T23:28:15.045Z,100259.66
2023-05-14T23:30:42.391Z,100266.22
2023-05-14T23:33:10.059Z,100270.44
2023-05-14T23:35:38.794Z,100269.75
2023-05-14T23:38:08.087Z,100266.06
2023-05-14T23:40:35.507Z,100264.22
2023-05-14T23:43:02.839Z,100257.69
2023-05-14T23:45:30.609Z,100259.19
2023-05-14T23:47:58.911Z,100252.31
2023-05-14T23:50:26.371Z,100244.59
2023-05-14T23:52:54.878Z,100250.13
2023-05-14T23:55:23.744Z,100249.78
2023-05-14T23:57:51.244Z,100236.84
